Time;durP1;ratioP1;P1;durP2;ratioP2;P2;SDS_P1;SDS_P2;PMS_P1;PMS_P2;Temp;Humidity;BMP_temperature;BMP_pressure;BME280_temperature;BME280_humidity;BME280_pressure;Samples;Min_cycle;Max_cycle;Signal;HPM_P1;HPM_P2
2022/07/12 00:00:09;;;;;;;0.10;0.10;;;16.10;99.90;;;;;;6185828;23;20019;-88
2022/07/12 00:02:35;;;;;;;0.17;0.17;;;16.00;99.90;;;;;;6185114;23;20017;-90
2022/07/12 00:05:01;;;;;;;0.10;0.10;;;16.00;99.90;;;;;;6185442;23;20019;-87
2022/07/12 00:07:26;;;;;;;0.13;0.13;;;15.90;99.90;;;;;;6214023;23;20021;-88
2022/07/12 00:09:52;;;;;;;0.10;0.10;;;15.90;99.90;;;;;;6214374;23;20048;-88
2022/07/12 00:12:17;;;;;;;0.15;0.15;;;16.80;99.90;;;;;;6184092;23;20402;-88
2022/07/12 00:14:43;;;;;;;0.10;0.10;;;15.90;99.90;;;;;;6210651;23;20020;-89
2022/07/12 00:17:09;;;;;;;0.10;0.10;;;16.40;99.90;;;;;;6184191;23;20051;-88
2022/07/12 00:19:34;;;;;;;0.10;0.10;;;15.80;99.90;;;;;;6183690;23;20437;-89
2022/07/12 00:22:00;;;;;;;0.10;0.10;;;15.80;99.90;;;;;;6185407;23;20024;-87
2022/07/12 00:24:26;;;;;;;0.20;0.20;;;15.80;99.90;;;;;;6211394;23;20032;-90
2022/07/12 00:26:52;;;;;;;0.20;0.20;;;15.70;99.90;;;;;;6184445;23;20024;-88
2022/07/12 00:29:18;;;;;;;0.13;0.13;;;15.60;99.90;;;;;;6211307;23;20024;-89
2022/07/12 00:31:43;;;;;;;0.20;0.20;;;16.10;99.90;;;;;;6213349;23;20013;-89
2022/07/12 00:34:09;;;;;;;0.20;0.20;;;15.70;99.90;;;;;;6211692;23;20020;-89
2022/07/12 00:36:34;;;;;;;0.10;0.10;;;15.80;99.90;;;;;;6186621;23;20163;-88
2022/07/12 00:39:00;;;;;;;0.10;0.10;;;15.80;99.90;;;;;;6187195;23;20016;-90
2022/07/12 00:41:26;;;;;;;0.10;0.10;;;15.80;99.90;;;;;;6215014;23;20087;-88
2022/07/12 00:43:52;;;;;;;0.10;0.10;;;15.90;99.90;;;;;;6188368;23;20119;-89
2022/07/12 00:46:23;;;;;;;0.10;0.10;;;16.40;99.90;;;;;;6213090;23;20021;-90
2022/07/12 00:48:48;;;;;;;0.10;0.10;;;15.90;99.90;;;;;;6213873;23;20013;-88
2022/07/12 00:51:15;;;;;;;0.10;0.10;;;16.90;99.90;;;;;;6228589;23;20009;-89
2022/07/12 00:53:41;;;;;;;0.17;0.17;;;16.90;99.90;;;;;;6213947;23;20386;-88
2022/07/12 00:56:07;;;;;;;0.10;0.10;;;16.50;99.90;;;;;;6186388;23;20056;-90
2022/07/12 00:58:33;;;;;;;0.17;0.17;;;15.90;99.90;;;;;;6186768;23;20012;-90
2022/07/12 01:00:59;;;;;;;0.20;0.20;;;15.60;99.90;;;;;;6185325;23;20067;-89
2022/07/12 01:03:26;;;;;;;0.20;0.20;;;16.90;99.90;;;;;;6213951;23;20020;-91
2022/07/12 01:05:52;;;;;;;0.20;0.20;;;15.80;99.90;;;;;;6187129;23;20016;-90
2022/07/12 01:08:18;;;;;;;0.13;0.13;;;16.20;99.90;;;;;;6187117;23;20540;-89
2022/07/12 01:10:44;;;;;;;0.10;0.10;;;15.60;99.90;;;;;;6187642;23;20023;-89
2022/07/12 01:13:11;;;;;;;0.20;0.20;;;15.80;99.90;;;;;;6185951;23;20012;-89
2022/07/12 01:15:37;;;;;;;0.15;0.15;;;15.80;99.90;;;;;;6213950;23;20413;-90
2022/07/12 01:18:04;;;;;;;0.10;0.10;;;16.60;99.90;;;;;;6186933;23;20092;-89
2022/07/12 01:20:31;;;;;;;0.15;0.15;;;16.70;99.90;;;;;;6186829;23;20013;-86
2022/07/12 01:22:58;;;;;;;0.20;0.20;;;15.80;99.90;;;;;;6214907;23;20020;-88
2022/07/12 01:25:24;;;;;;;0.10;0.10;;;16.40;99.90;;;;;;6189077;23;20023;-90
2022/07/12 01:27:49;;;;;;;0.10;0.10;;;16.20;99.90;;;;;;6213584;23;20016;-88
2022/07/12 01:30:15;;;;;;;0.20;0.20;;;15.80;99.90;;;;;;6186376;23;20040;-89
2022/07/12 01:32:42;;;;;;;0.17;0.17;;;16.30;99.90;;;;;;6215303;23;20016;-91
2022/07/12 01:35:07;;;;;;;0.10;0.10;;;16.80;99.90;;;;;;6214517;23;20746;-91
2022/07/12 01:37:37;;;;;;;0.10;0.10;;;15.80;99.90;;;;;;6214621;23;20076;-90
2022/07/12 01:40:05;;;;;;;0.20;0.20;;;16.00;99.90;;;;;;6186893;23;20035;-89
2022/07/12 01:42:31;;;;;;;0.10;0.10;;;15.80;99.90;;;;;;6183367;23;20033;-91
2022/07/12 01:44:58;;;;;;;0.20;0.20;;;15.90;99.90;;;;;;6204750;23;20009;-92
2022/07/12 01:47:25;;;;;;;0.10;0.10;;;15.90;99.90;;;;;;6197342;23;20017;-91
2022/07/12 01:49:51;;;;;;;0.13;0.13;;;15.90;99.90;;;;;;6190386;23;20562;-92
2022/07/12 01:52:18;;;;;;;0.20;0.20;;;15.90;99.90;;;;;;6214777;23;20013;-91
2022/07/12 01:54:44;;;;;;;0.10;0.10;;;15.90;99.90;;;;;;6186698;23;20017;-90
2022/07/12 01:57:10;;;;;;;0.10;0.10;;;15.90;99.90;;;;;;6186827;23;20035;-89
2022/07/12 01:59:36;;;;;;;0.10;0.10;;;15.90;99.90;;;;;;6211715;23;20016;-91
2022/07/12 02:02:03;;;;;;;0.10;0.10;;;15.90;99.90;;;;;;6211611;23;20028;-89
2022/07/12 02:04:29;;;;;;;0.10;0.10;;;15.90;99.90;;;;;;6212024;23;20158;-91
2022/07/12 02:06:55;;;;;;;0.10;0.10;;;15.90;99.90;;;;;;6214078;23;20095;-91
2022/07/12 02:09:21;;;;;;;0.20;0.20;;;15.90;99.90;;;;;;6186487;23;20025;-92
2022/07/12 02:11:47;;;;;;;0.10;0.10;;;15.80;99.90;;;;;;6213686;23;20013;-90
2022/07/12 02:14:13;;;;;;;0.15;0.15;;;15.80;99.90;;;;;;6187252;23;20113;-92
2022/07/12 02:16:40;;;;;;;0.10;0.10;;;15.70;99.90;;;;;;6215123;23;20017;-89
2022/07/12 02:19:06;;;;;;;0.13;0.13;;;15.80;99.90;;;;;;6186175;23;20043;-91
2022/07/12 02:21:31;;;;;;;0.13;0.13;;;15.80;99.90;;;;;;6188851;23;20028;-91
2022/07/12 02:23:57;;;;;;;0.20;0.20;;;16.00;99.90;;;;;;6215830;23;20012;-92
2022/07/12 02:26:23;;;;;;;0.20;0.20;;;15.70;99.90;;;;;;6187082;23;20017;-92
2022/07/12 02:28:49;;;;;;;0.20;0.20;;;15.70;99.90;;;;;;6212705;23;20381;-92
2022/07/12 02:31:15;;;;;;;0.20;0.20;;;15.70;99.90;;;;;;6188942;23;20036;-91
2022/07/12 02:33:41;;;;;;;0.10;0.10;;;15.70;99.90;;;;;;6213195;23;20028;-92
2022/07/12 02:36:07;;;;;;;0.20;0.20;;;15.70;99.90;;;;;;6191454;23;20107;-93
2022/07/12 02:38:32;;;;;;;0.20;0.20;;;15.60;99.90;;;;;;6194481;23;20021;-89
2022/07/12 02:40:58;;;;;;;0.20;0.20;;;15.60;99.90;;;;;;6219073;23;20047;-94
2022/07/12 02:43:25;;;;;;;0.10;0.10;;;15.60;99.90;;;;;;6185745;23;20095;-91
2022/07/12 02:45:53;;;;;;;0.10;0.10;;;15.50;99.90;;;;;;6213826;23;20020;-90
2022/07/12 02:48:19;;;;;;;0.10;0.10;;;15.60;99.90;;;;;;6215833;23;20054;-91
2022/07/12 02:50:46;;;;;;;0.10;0.10;;;15.60;99.90;;;;;;6192927;23;20031;-95
2022/07/12 02:53:12;;;;;;;0.20;0.20;;;15.60;99.90;;;;;;6226156;23;20087;-94
2022/07/12 02:55:38;;;;;;;0.10;0.10;;;15.60;99.90;;;;;;6215890;23;20112;-91
2022/07/12 02:58:07;;;;;;;0.20;0.20;;;15.50;99.90;;;;;;6185884;23;20020;-92
2022/07/12 03:00:34;;;;;;;0.20;0.20;;;15.60;99.90;;;;;;6216126;23;20019;-91
2022/07/12 03:03:01;;;;;;;0.10;0.10;;;15.60;99.90;;;;;;6187266;23;20020;-93
2022/07/12 03:05:27;;;;;;;0.20;0.20;;;15.60;99.90;;;;;;6189098;23;20088;-91
2022/07/12 03:07:53;;;;;;;0.10;0.10;;;15.60;99.90;;;;;;6212917;23;20048;-92
2022/07/12 03:10:18;;;;;;;0.10;0.10;;;15.50;99.90;;;;;;6189210;23;20017;-91
2022/07/12 03:12:44;;;;;;;0.20;0.20;;;15.50;99.90;;;;;;6214331;23;20090;-93
2022/07/12 03:15:10;;;;;;;0.20;0.20;;;15.50;99.90;;;;;;6187433;23;20093;-94
2022/07/12 03:17:36;;;;;;;0.10;0.10;;;15.40;99.90;;;;;;6213667;23;20019;-92
2022/07/12 03:20:04;;;;;;;0.10;0.10;;;15.40;99.90;;;;;;6211492;23;20027;-91
2022/07/12 03:22:30;;;;;;;0.10;0.10;;;15.30;99.90;;;;;;6212563;23;20024;-88
2022/07/12 03:24:55;;;;;;;0.10;0.10;;;15.30;99.90;;;;;;6212559;23;20012;-91
2022/07/12 03:27:21;;;;;;;0.20;0.20;;;15.40;99.90;;;;;;6214287;23;20321;-93
2022/07/12 03:29:47;;;;;;;0.10;0.10;;;15.30;99.90;;;;;;6186561;23;20091;-90
2022/07/12 03:32:13;;;;;;;0.10;0.10;;;15.30;99.90;;;;;;6216538;23;20086;-90
2022/07/12 03:34:38;;;;;;;0.10;0.10;;;15.30;99.90;;;;;;6212820;23;20063;-92
2022/07/12 03:37:04;;;;;;;0.10;0.10;;;15.30;99.90;;;;;;6213412;23;20255;-91
2022/07/12 03:39:30;;;;;;;0.10;0.10;;;15.30;99.90;;;;;;6212748;23;20028;-92
2022/07/12 03:41:55;;;;;;;0.10;0.10;;;15.30;99.90;;;;;;6186549;23;20047;-91
2022/07/12 03:44:21;;;;;;;0.20;0.20;;;15.40;99.90;;;;;;6212939;23;20032;-91
2022/07/12 03:46:47;;;;;;;0.10;0.10;;;15.40;99.90;;;;;;6212746;23;20048;-92
2022/07/12 03:49:13;;;;;;;0.10;0.10;;;15.40;99.90;;;;;;6183568;23;20409;-90
2022/07/12 03:51:39;;;;;;;0.10;0.10;;;15.40;99.90;;;;;;6212530;23;20051;-92
2022/07/12 03:54:07;;;;;;;0.10;0.10;;;15.40;99.90;;;;;;6185478;23;20035;-90
2022/07/12 03:59:17;;;;;;;0.15;0.15;;;15.50;99.90;;;;;;6211211;23;20020;-90
2022/07/12 04:01:43;;;;;;;0.10;0.10;;;15.40;99.90;;;;;;6184635;23;20023;-90
2022/07/12 04:04:09;;;;;;;0.10;0.10;;;15.50;99.90;;;;;;6212210;23;20012;-91
2022/07/12 04:06:34;;;;;;;0.15;0.15;;;15.50;99.90;;;;;;6187275;23;20044;-91
2022/07/12 04:09:00;;;;;;;0.20;0.20;;;15.50;99.90;;;;;;6217292;23;20333;-92
2022/07/12 04:11:26;;;;;;;0.10;0.10;;;15.50;99.90;;;;;;6232979;23;20095;-89
2022/07/12 04:13:51;;;;;;;0.10;0.10;;;15.50;99.90;;;;;;6225876;23;20116;-88
2022/07/12 04:16:17;;;;;;;0.10;0.10;;;15.50;99.90;;;;;;6219977;23;20023;-88
2022/07/12 04:18:43;;;;;;;0.10;0.10;;;15.40;99.90;;;;;;6186625;23;20013;-88
2022/07/12 04:21:08;;;;;;;0.10;0.10;;;15.40;99.90;;;;;;6188992;23;20096;-92
2022/07/12 04:23:34;;;;;;;0.20;0.20;;;15.40;99.90;;;;;;6213002;23;20024;-89
2022/07/12 04:25:59;;;;;;;0.10;0.10;;;15.40;99.90;;;;;;6188039;23;20078;-88
2022/07/12 04:28:25;;;;;;;0.10;0.10;;;15.40;99.90;;;;;;6212909;23;20392;-88
2022/07/12 04:30:50;;;;;;;0.10;0.10;;;15.50;99.90;;;;;;6187020;23;20341;-89
2022/07/12 04:33:16;;;;;;;0.10;0.10;;;15.50;99.90;;;;;;6186631;23;20021;-88
2022/07/12 04:35:42;;;;;;;0.20;0.20;;;15.50;99.90;;;;;;6187297;23;20300;-88
2022/07/12 04:38:08;;;;;;;0.10;0.10;;;15.50;99.90;;;;;;6214640;23;20048;-92
2022/07/12 04:40:33;;;;;;;0.10;0.10;;;15.60;99.90;;;;;;6217713;23;20009;-92
2022/07/12 04:42:59;;;;;;;0.20;0.20;;;15.60;99.90;;;;;;6192407;23;20031;-93
2022/07/12 04:45:25;;;;;;;0.10;0.10;;;15.60;99.90;;;;;;6215763;23;20359;-91
2022/07/12 04:47:50;;;;;;;0.10;0.10;;;15.60;99.90;;;;;;6215857;23;20028;-89
2022/07/12 04:50:16;;;;;;;0.10;0.10;;;15.60;99.90;;;;;;6189935;23;20012;-91
2022/07/12 04:52:42;;;;;;;0.13;0.13;;;15.60;99.90;;;;;;6213933;23;20051;-90
2022/07/12 04:55:08;;;;;;;0.10;0.10;;;15.40;99.90;;;;;;6203791;23;20026;-89
2022/07/12 04:57:33;;;;;;;0.10;0.10;;;15.30;99.90;;;;;;6220546;23;20035;-91
2022/07/12 04:59:59;;;;;;;0.13;0.13;;;15.40;99.90;;;;;;6189241;23;20107;-92
2022/07/12 05:02:25;;;;;;;0.10;0.10;;;15.50;99.90;;;;;;6216550;23;20224;-90
2022/07/12 05:04:51;;;;;;;0.10;0.10;;;15.30;99.90;;;;;;6216255;23;20020;-90
2022/07/12 05:07:16;;;;;;;0.20;0.20;;;15.20;99.90;;;;;;6189351;23;20020;-89
2022/07/12 05:09:42;;;;;;;0.10;0.10;;;15.20;99.90;;;;;;6188887;23;20362;-89
2022/07/12 05:12:07;;;;;;;0.10;0.10;;;15.10;99.90;;;;;;6191010;23;20017;-90
2022/07/12 05:14:33;;;;;;;0.10;0.10;;;15.10;99.90;;;;;;6187100;23;20013;-90
2022/07/12 05:16:59;;;;;;;0.10;0.10;;;15.10;99.90;;;;;;6189030;23;20021;-90
2022/07/12 05:19:25;;;;;;;0.10;0.10;;;15.10;99.90;;;;;;6188002;23;20027;-92
2022/07/12 05:21:51;;;;;;;0.10;0.10;;;15.00;99.90;;;;;;6214032;23;20044;-89
2022/07/12 05:24:17;;;;;;;0.10;0.10;;;15.00;99.90;;;;;;6187876;23;20012;-89
2022/07/12 05:26:42;;;;;;;0.10;0.10;;;15.10;99.90;;;;;;6215972;23;20024;-90
2022/07/12 05:29:08;;;;;;;0.10;0.10;;;15.00;99.90;;;;;;6186665;23;20108;-90
2022/07/12 05:31:34;;;;;;;0.10;0.10;;;15.00;99.90;;;;;;6215853;23;20337;-92
2022/07/12 05:34:00;;;;;;;0.10;0.10;;;15.10;99.90;;;;;;6216481;23;20009;-92
2022/07/12 05:36:26;;;;;;;0.10;0.10;;;15.10;99.90;;;;;;6192810;23;20070;-90
2022/07/12 05:38:52;;;;;;;0.20;0.20;;;15.10;99.90;;;;;;6190772;23;20081;-92
2022/07/12 05:41:17;;;;;;;0.10;0.10;;;15.20;99.90;;;;;;6216919;23;20048;-92
2022/07/12 05:43:43;;;;;;;0.13;0.13;;;15.20;99.90;;;;;;6215267;23;20017;-93
2022/07/12 05:46:09;;;;;;;0.20;0.20;;;15.20;99.90;;;;;;6215901;23;20016;-89
2022/07/12 05:48:36;;;;;;;0.20;0.20;;;15.20;99.90;;;;;;6212615;23;20013;-89
2022/07/12 05:53:46;;;;;;;0.13;0.13;;;15.10;99.90;;;;;;6188150;23;20433;-90
2022/07/12 05:56:13;;;;;;;0.13;0.13;;;15.20;99.90;;;;;;6215564;23;20026;-93
2022/07/12 05:58:39;;;;;;;0.10;0.10;;;15.20;99.90;;;;;;6188266;23;20048;-90
2022/07/12 06:01:05;;;;;;;0.10;0.10;;;15.30;99.90;;;;;;6187483;23;20043;-90
2022/07/12 06:03:31;;;;;;;0.10;0.10;;;15.30;99.90;;;;;;6213840;23;20024;-91
2022/07/12 06:05:57;;;;;;;0.10;0.10;;;15.40;99.90;;;;;;6186606;23;20397;-90
2022/07/12 06:08:22;;;;;;;0.10;0.10;;;15.40;99.90;;;;;;6186753;23;20359;-88
2022/07/12 06:10:48;;;;;;;0.10;0.10;;;15.50;99.90;;;;;;6187214;23;20016;-88
2022/07/12 06:13:14;;;;;;;0.13;0.13;;;15.50;99.90;;;;;;6213304;23;20027;-84
2022/07/12 06:15:39;;;;;;;0.20;0.20;;;15.50;99.90;;;;;;6187515;23;20075;-93
2022/07/12 06:18:05;;;;;;;0.20;0.20;;;15.60;99.90;;;;;;6185918;23;20012;-89
2022/07/12 06:20:31;;;;;;;0.20;0.20;;;15.50;99.90;;;;;;6187293;23;20521;-92
2022/07/12 06:22:57;;;;;;;0.20;0.20;;;15.60;99.90;;;;;;6215920;23;20425;-90
2022/07/12 06:25:23;;;;;;;0.10;0.10;;;15.70;99.90;;;;;;6185804;23;20023;-91
2022/07/12 06:27:49;;;;;;;0.10;0.10;;;15.80;99.90;;;;;;6187571;23;20017;-88
2022/07/12 06:30:19;;;;;;;0.10;0.10;;;15.80;99.90;;;;;;6186808;23;20023;-92
2022/07/12 06:32:46;;;;;;;0.10;0.10;;;15.90;99.90;;;;;;6215574;23;20027;-88
2022/07/12 06:35:12;;;;;;;0.10;0.10;;;15.90;99.90;;;;;;6227824;23;20020;-90
2022/07/12 06:37:38;;;;;;;0.20;0.20;;;16.00;99.90;;;;;;6195264;23;20031;-90
2022/07/12 06:40:05;;;;;;;0.10;0.10;;;16.00;99.90;;;;;;6189118;23;20016;-89
2022/07/12 06:42:30;;;;;;;0.10;0.10;;;16.10;99.90;;;;;;6214537;23;20013;-86
2022/07/12 06:44:56;;;;;;;0.15;0.15;;;16.20;99.90;;;;;;6181894;23;20082;-86
2022/07/12 06:47:22;;;;;;;0.10;0.10;;;16.20;99.90;;;;;;6183505;23;20013;-86
2022/07/12 06:49:47;;;;;;;0.10;0.10;;;16.20;99.90;;;;;;6208416;23;20418;-90
2022/07/12 06:52:13;;;;;;;0.10;0.10;;;16.20;99.90;;;;;;6209726;23;20092;-85
2022/07/12 06:54:39;;;;;;;0.10;0.10;;;16.40;99.90;;;;;;6181917;23;20023;-85
2022/07/12 06:57:05;;;;;;;0.10;0.10;;;16.40;99.90;;;;;;6209851;23;20099;-87
2022/07/12 06:59:34;;;;;;;0.20;0.20;;;16.20;99.90;;;;;;6208530;23;20032;-85
2022/07/12 07:02:06;;;;;;;0.10;0.10;;;16.30;99.90;;;;;;6183007;23;20037;-87
2022/07/12 07:04:35;;;;;;;0.20;0.20;;;16.40;99.90;;;;;;6182548;23;20103;-84
2022/07/12 07:07:00;;;;;;;0.10;0.10;;;16.40;99.90;;;;;;6205242;23;20118;-85
2022/07/12 07:09:29;;;;;;;0.10;0.10;;;16.60;99.90;;;;;;6209196;23;20012;-82
2022/07/12 07:11:54;;;;;;;0.10;0.10;;;16.40;99.90;;;;;;6210014;23;20028;-84
2022/07/12 07:14:20;;;;;;;0.10;0.10;;;16.50;99.90;;;;;;6181333;23;20021;-87
2022/07/12 07:16:46;;;;;;;0.20;0.20;;;16.60;99.90;;;;;;6209817;23;20087;-84
2022/07/12 07:19:12;;;;;;;0.10;0.10;;;16.70;99.90;;;;;;6179849;23;20040;-84
2022/07/12 07:21:37;;;;;;;0.20;0.20;;;16.80;99.90;;;;;;6180298;23;20028;-83
2022/07/12 07:24:03;;;;;;;0.17;0.17;;;17.00;99.90;;;;;;6182616;23;20108;-84
2022/07/12 07:26:30;;;;;;;0.10;0.10;;;17.00;99.90;;;;;;6209768;23;20056;-84
2022/07/12 07:31:40;;;;;;;0.10;0.10;;;17.20;99.90;;;;;;6210502;23;20020;-83
2022/07/12 07:34:08;;;;;;;0.10;0.10;;;17.30;99.90;;;;;;6208522;23;20110;-83
2022/07/12 07:36:34;;;;;;;0.20;0.20;;;17.40;99.90;;;;;;6183488;23;20650;-84
2022/07/12 07:39:00;;;;;;;0.10;0.10;;;17.40;99.90;;;;;;6210342;23;20027;-83
2022/07/12 07:41:26;;;;;;;0.20;0.20;;;17.50;99.90;;;;;;6211377;23;20360;-83
2022/07/12 07:43:51;;;;;;;0.10;0.10;;;17.70;99.90;;;;;;6184954;23;20024;-84
2022/07/12 07:46:17;;;;;;;0.20;0.20;;;17.50;99.90;;;;;;6184195;23;20028;-85
2022/07/12 07:48:43;;;;;;;0.20;0.20;;;17.80;99.90;;;;;;6210479;23;20012;-84
2022/07/12 07:51:11;;;;;;;0.10;0.10;;;17.90;99.90;;;;;;6183542;23;20023;-84
2022/07/12 07:53:37;;;;;;;0.10;0.10;;;18.00;99.90;;;;;;6183623;23;20477;-84
2022/07/12 07:56:03;;;;;;;0.10;0.10;;;18.30;99.90;;;;;;6182897;23;20028;-83
2022/07/12 07:58:28;;;;;;;0.20;0.20;;;18.30;99.90;;;;;;6211315;23;20017;-84
2022/07/12 08:00:54;;;;;;;0.20;0.20;;;18.40;99.90;;;;;;6208767;23;20026;-85
2022/07/12 08:03:20;;;;;;;0.20;0.20;;;18.50;99.90;;;;;;6212280;23;20338;-85
2022/07/12 08:05:47;;;;;;;0.20;0.20;;;18.50;99.90;;;;;;6210324;23;20528;-85
2022/07/12 08:08:12;;;;;;;0.20;0.20;;;18.70;99.90;;;;;;6210182;23;20038;-85
2022/07/12 08:10:38;;;;;;;0.10;0.10;;;18.80;99.90;;;;;;6211813;23;20091;-83
2022/07/12 08:13:04;;;;;;;0.20;0.20;;;18.90;99.90;;;;;;6211955;23;20023;-84
2022/07/12 08:15:30;;;;;;;0.10;0.10;;;19.00;99.90;;;;;;6209595;23;20017;-84
2022/07/12 08:17:56;;;;;;;0.20;0.20;;;19.10;99.90;;;;;;6184637;23;20434;-85
2022/07/12 08:20:23;;;;;;;0.10;0.10;;;19.20;99.90;;;;;;6184440;23;20109;-83
2022/07/12 08:22:48;;;;;;;0.20;0.20;;;19.50;99.90;;;;;;6209537;23;20092;-86
2022/07/12 08:25:14;;;;;;;0.20;0.20;;;19.50;99.90;;;;;;6183102;23;20505;-86
2022/07/12 08:27:40;;;;;;;0.20;0.20;;;19.50;99.90;;;;;;6212586;23;20098;-85
2022/07/12 08:30:16;;;;;;;0.20;0.20;;;19.60;99.90;;;;;;6209934;23;20387;-85
2022/07/12 08:32:45;;;;;;;0.20;0.20;;;19.60;99.90;;;;;;6212047;23;20024;-85
2022/07/12 08:35:11;;;;;;;0.20;0.20;;;19.70;99.90;;;;;;6184035;23;20013;-84
2022/07/12 08:37:36;;;;;;;0.20;0.20;;;19.80;99.90;;;;;;6209369;23;20050;-84
2022/07/12 08:40:06;;;;;;;0.20;0.20;;;19.90;99.90;;;;;;6185399;23;20009;-86
2022/07/12 08:42:33;;;;;;;0.10;0.10;;;19.90;99.90;;;;;;6211798;23;20456;-86
2022/07/12 08:44:59;;;;;;;0.20;0.20;;;20.00;99.90;;;;;;6210322;23;20013;-83
2022/07/12 08:47:25;;;;;;;0.15;0.15;;;20.00;99.90;;;;;;6183318;23;20092;-84
2022/07/12 08:50:10;;;;;;;0.10;0.10;;;20.10;99.90;;;;;;6206597;23;20174;-86
2022/07/12 08:52:42;;;;;;;0.20;0.20;;;20.20;99.90;;;;;;6180152;23;20031;-84
2022/07/12 08:55:26;;;;;;;0.20;0.20;;;20.20;99.90;;;;;;6209877;23;20023;-86
2022/07/12 08:57:53;;;;;;;0.20;0.20;;;20.20;99.90;;;;;;6178810;23;20020;-82
2022/07/12 09:00:19;;;;;;;0.20;0.20;;;20.30;99.90;;;;;;6210126;23;20021;-85
2022/07/12 09:02:55;;;;;;;0.20;0.20;;;20.30;99.90;;;;;;6213888;23;20563;-85
2022/07/12 09:05:27;;;;;;;0.20;0.20;;;20.40;99.90;;;;;;6180268;23;20048;-84
2022/07/12 09:08:08;;;;;;;0.20;0.20;;;20.50;99.90;;;;;;6208629;23;20103;-84
2022/07/12 09:10:35;;;;;;;0.17;0.17;;;20.70;99.90;;;;;;6208342;23;20012;-84
2022/07/12 09:13:01;;;;;;;0.20;0.20;;;20.60;99.90;;;;;;6208205;23;20507;-84
2022/07/12 09:15:27;;;;;;;0.20;0.20;;;20.70;99.90;;;;;;6209752;23;20017;-85
2022/07/12 09:18:13;;;;;;;0.20;0.20;;;20.60;99.90;;;;;;6183778;23;20381;-87
2022/07/12 09:20:40;;;;;;;0.20;0.20;;;20.80;99.90;;;;;;6208056;23;20421;-84
2022/07/12 09:23:09;;;;;;;0.20;0.20;;;20.90;99.90;;;;;;6211339;23;20091;-87
2022/07/12 09:25:35;;;;;;;0.20;0.20;;;21.00;99.90;;;;;;6183894;23;20055;-84
2022/07/12 09:28:08;;;;;;;0.20;0.20;;;21.00;99.90;;;;;;6182361;23;20698;-84
2022/07/12 09:30:38;;;;;;;0.20;0.20;;;21.20;99.90;;;;;;6211357;23;20024;-84
2022/07/12 09:36:12;;;;;;;0.20;0.20;;;21.30;99.90;;;;;;6208497;23;20127;-83
2022/07/12 09:38:53;;;;;;;0.20;0.20;;;21.40;99.90;;;;;;6183086;23;20044;-87
2022/07/12 09:41:21;;;;;;;0.20;0.20;;;21.40;99.90;;;;;;6183020;23;20385;-86
2022/07/12 09:43:48;;;;;;;0.20;0.20;;;21.40;99.90;;;;;;6208151;23;20100;-84
2022/07/12 09:46:14;;;;;;;0.20;0.20;;;21.50;99.90;;;;;;6178983;23;20017;-83
2022/07/12 09:48:44;;;;;;;0.20;0.20;;;21.60;99.90;;;;;;6208373;23;20021;-84
2022/07/12 09:51:14;;;;;;;0.20;0.20;;;21.90;99.90;;;;;;6211600;23;20048;-95
2022/07/12 09:53:47;;;;;;;0.20;0.20;;;22.20;99.90;;;;;;6187393;23;20047;-90
2022/07/12 09:56:19;;;;;;;0.20;0.20;;;21.70;99.90;;;;;;6186071;23;20255;-88
2022/07/12 09:59:00;;;;;;;0.20;0.20;;;21.70;99.90;;;;;;6209676;23;20095;-87
2022/07/12 10:01:30;;;;;;;0.20;0.20;;;21.80;99.90;;;;;;6211123;23;20021;-84
2022/07/12 10:03:59;;;;;;;0.20;0.20;;;21.80;99.90;;;;;;6184425;23;20055;-93
2022/07/12 10:10:29;;;;;;;0.20;0.20;;;21.60;99.90;;;;;;6086188;23;20444;-89
2022/07/12 10:12:58;;;;;;;0.20;0.20;;;22.00;99.90;;;;;;6070948;23;20074;-91
2022/07/12 10:15:28;;;;;;;0.20;0.20;;;22.10;99.90;;;;;;6216905;23;20012;-92
2022/07/12 10:17:56;;;;;;;0.17;0.17;;;21.70;99.90;;;;;;6194328;23;20086;-95
2022/07/12 10:20:26;;;;;;;0.20;0.20;;;22.20;99.90;;;;;;6186408;23;20013;-93
2022/07/12 10:22:54;;;;;;;0.20;0.20;;;22.30;99.90;;;;;;6219421;23;20021;-95
2022/07/12 10:25:30;;;;;;;0.20;0.20;;;22.30;99.90;;;;;;6190124;23;20016;-94
2022/07/12 10:28:03;;;;;;;0.10;0.10;;;22.30;99.90;;;;;;6219404;23;20021;-95
2022/07/12 10:30:29;;;;;;;0.20;0.20;;;22.30;99.90;;;;;;6194029;23;20020;-94
2022/07/12 10:32:58;;;;;;;0.15;0.15;;;22.30;99.90;;;;;;6197357;23;20070;-93
2022/07/12 10:35:29;;;;;;;0.20;0.20;;;22.40;99.90;;;;;;6224160;23;20426;-94
2022/07/12 10:38:16;;;;;;;0.20;0.20;;;22.40;99.90;;;;;;6201166;23;20024;-94
2022/07/12 10:40:49;;;;;;;0.20;0.20;;;23.60;99.90;;;;;;6199765;23;20023;-93
2022/07/12 10:43:17;;;;;;;0.20;0.20;;;22.60;99.90;;;;;;6197356;23;20039;-95
2022/07/12 10:45:52;;;;;;;0.20;0.20;;;22.80;99.90;;;;;;6193325;23;20298;-93
2022/07/12 10:48:17;;;;;;;0.20;0.20;;;22.90;99.90;;;;;;6214513;23;20021;-93
2022/07/12 10:50:44;;;;;;;0.20;0.20;;;22.90;99.90;;;;;;6212892;23;20013;-86
2022/07/12 11:07:47;;;;;;;0.20;0.20;;;23.70;99.90;;;;;;6240643;22;20051;-90
2022/07/12 11:10:13;;;;;;;0.20;0.20;;;23.60;99.90;;;;;;6246667;23;20404;-92
2022/07/12 11:12:39;;;;;;;0.20;0.20;;;23.70;99.90;;;;;;6244147;23;20186;-93
2022/07/12 11:15:05;;;;;;;0.20;0.20;;;23.70;99.90;;;;;;6211417;23;20020;-86
2022/07/12 11:17:32;;;;;;;0.20;0.20;;;23.90;99.90;;;;;;6213574;23;20078;-85
2022/07/12 11:20:13;;;;;;;0.20;0.20;;;23.90;99.90;;;;;;6239890;23;20012;-86
2022/07/12 11:22:48;;;;;;;0.20;0.20;;;24.00;99.90;;;;;;6213627;23;20055;-85
2022/07/12 11:25:17;;;;;;;0.20;0.20;;;24.10;99.90;;;;;;6238230;23;20016;-83
2022/07/12 11:27:45;;;;;;;0.20;0.20;;;24.20;99.90;;;;;;6211231;23;20107;-82
2022/07/12 11:30:13;;;;;;;0.20;0.20;;;24.20;99.90;;;;;;6212544;23;20345;-83
2022/07/12 11:32:47;;;;;;;0.20;0.20;;;24.20;99.90;;;;;;6211335;23;20031;-83
2022/07/12 11:35:23;;;;;;;0.20;0.20;;;24.20;99.90;;;;;;6210687;23;20106;-83
2022/07/12 11:37:56;;;;;;;0.20;0.20;;;24.30;99.90;;;;;;6212853;23;20016;-81
2022/07/12 11:40:26;;;;;;;0.17;0.17;;;24.30;99.90;;;;;;6212055;23;20535;-82
2022/07/12 11:42:54;;;;;;;0.20;0.20;;;24.30;99.90;;;;;;6211304;23;20027;-82
2022/07/12 11:45:19;;;;;;;0.20;0.20;;;24.40;99.90;;;;;;6211205;23;20016;-83
2022/07/12 11:48:06;;;;;;;0.20;0.20;;;24.50;99.90;;;;;;6210834;23;20107;-84
2022/07/12 11:50:34;;;;;;;0.20;0.20;;;24.70;99.90;;;;;;6212325;23;20380;-84
2022/07/12 11:53:00;;;;;;;0.20;0.20;;;24.70;99.90;;;;;;6237315;23;20019;-83
2022/07/12 11:55:25;;;;;;;0.20;0.20;;;24.80;99.90;;;;;;6210119;23;20012;-83
2022/07/12 11:58:02;;;;;;;0.20;0.20;;;24.90;99.90;;;;;;6239081;23;20091;-83
2022/07/12 12:00:28;;;;;;;0.20;0.20;;;24.90;99.90;;;;;;6211591;23;20337;-86
2022/07/12 12:02:54;;;;;;;0.20;0.20;;;25.00;99.90;;;;;;6242074;23;20020;-93
2022/07/12 12:06:04;;;;;;;0.20;0.20;;;25.10;99.90;;;;;;6216281;23;20514;-92
2022/07/12 12:09:09;;;;;;;0.20;0.20;;;25.10;99.90;;;;;;6092487;23;20053;-86
2022/07/12 12:11:36;;;;;;;0.20;0.20;;;25.20;99.90;;;;;;6120994;23;20018;-91
2022/07/12 12:23:20;;;;;;;0.20;0.20;;;25.50;99.90;;;;;;6206861;23;20321;-92
2022/07/12 12:25:46;;;;;;;0.20;0.20;;;25.50;99.90;;;;;;6165015;23;20021;-90
2022/07/12 12:28:18;;;;;;;0.20;0.20;;;25.50;99.90;;;;;;6183780;23;20154;-89
2022/07/12 12:31:24;;;;;;;0.20;0.20;;;25.50;99.90;;;;;;6187289;23;20051;-87
2022/07/12 12:38:30;;;;;;;0.20;0.20;;;25.70;99.90;;;;;;6202120;23;20910;-89
2022/07/12 12:40:56;;;;;;;0.20;0.20;;;25.90;99.90;;;;;;6183037;23;20020;-85
2022/07/12 12:43:22;;;;;;;0.20;0.20;;;25.90;99.90;;;;;;6183340;23;20039;-87
2022/07/12 12:45:58;;;;;;;0.20;0.20;;;26.00;99.90;;;;;;6213108;23;20071;-90
2022/07/12 12:48:25;;;;;;;0.20;0.20;;;26.10;99.90;;;;;;6210508;23;20024;-87
2022/07/12 12:51:07;;;;;;;0.20;0.20;;;26.10;99.90;;;;;;6201525;23;20020;-87
2022/07/12 12:53:34;;;;;;;0.20;0.20;;;26.10;99.90;;;;;;6203776;23;20191;-88
2022/07/12 12:56:00;;;;;;;0.20;0.20;;;26.20;99.90;;;;;;6202308;23;20017;-86
2022/07/12 12:58:26;;;;;;;0.10;0.10;;;26.30;99.90;;;;;;6199079;23;20044;-88
2022/07/12 13:09:04;;;;;;;0.20;0.20;;;26.60;99.90;;;;;;6004217;23;20477;-86
2022/07/12 13:11:29;;;;;;;0.20;0.20;;;26.60;99.90;;;;;;6005526;23;20033;-86
2022/07/12 13:14:27;;;;;;;0.20;0.20;;;26.70;99.90;;;;;;6168671;23;20012;-86
2022/07/12 13:21:43;;;;;;;0.20;0.20;;;26.60;99.90;;;;;;6091223;23;20033;-87
2022/07/12 13:24:58;;;;;;;0.10;0.10;;;26.70;99.90;;;;;;6065245;23;20018;-86
2022/07/12 13:27:27;;;;;;;0.17;0.17;;;26.70;99.90;;;;;;5999006;23;20106;-94
2022/07/12 13:29:53;;;;;;;0.20;0.20;;;26.70;99.90;;;;;;6133143;23;20019;-93
2022/07/12 13:32:21;;;;;;;0.20;0.20;;;26.70;99.90;;;;;;6194590;23;20024;-90
2022/07/12 13:34:47;;;;;;;0.20;0.20;;;26.70;99.90;;;;;;6215612;23;20034;-88
2022/07/12 13:44:32;;;;;;;0.20;0.20;;;26.30;99.90;;;;;;6215140;23;19985;-92
2022/07/12 13:47:29;;;;;;;0.20;0.20;;;26.40;99.90;;;;;;6189576;23;20151;-91
2022/07/12 13:50:17;;;;;;;0.20;0.20;;;26.30;99.90;;;;;;6204530;23;20395;-91
2022/07/12 13:53:53;;;;;;;;;;;;;;;;;;;;;
2022/07/12 13:57:22;;;;;;;0.20;0.20;;;26.20;99.90;;;;;;6167994;23;20073;-93